Time;durP1;ratioP1;P1;durP2;ratioP2;P2;SDS_P1;SDS_P2;PMS_P1;PMS_P2;Temp;Humidity;BMP_temperature;BMP_pressure;BME280_temperature;BME280_humidity;BME280_pressure;Samples;Min_cycle;Max_cycle;Signal;HPM_P1;HPM_P2
2022/02/17 00:03:39;;;;;;;4.90;1.13;;;17.90;65.80;;;;;;10400242;28;20041;-60
2022/02/17 00:08:42;;;;;;;4.10;0.90;;;17.80;65.80;;;;;;10416523;28;20072;-61
2022/02/17 00:13:43;;;;;;;4.00;0.80;;;17.90;65.70;;;;;;10416097;28;20522;-61
2022/02/17 00:18:43;;;;;;;2.47;0.90;;;17.80;65.60;;;;;;10403023;28;20128;-62
2022/02/17 00:23:44;;;;;;;1.88;1.00;;;17.80;65.70;;;;;;10416441;28;20029;-61
2022/02/17 00:28:45;;;;;;;2.88;1.00;;;17.90;65.60;;;;;;10416972;28;20124;-61
2022/02/17 00:33:46;;;;;;;2.33;0.93;;;17.80;65.60;;;;;;10434482;28;20096;-61
2022/02/17 00:38:47;;;;;;;2.63;1.20;;;17.90;65.70;;;;;;10419823;28;20045;-61
2022/02/17 00:43:48;;;;;;;4.07;1.23;;;17.90;65.50;;;;;;10415426;28;20113;-61
2022/02/17 00:48:49;;;;;;;1.50;0.80;;;17.80;65.50;;;;;;10402046;28;20041;-60
2022/02/17 00:53:50;;;;;;;3.67;1.15;;;17.90;65.50;;;;;;10431389;28;20043;-61
2022/02/17 00:58:51;;;;;;;3.63;1.02;;;17.90;65.40;;;;;;10416012;28;20377;-61
2022/02/17 01:03:51;;;;;;;2.45;1.00;;;17.90;65.50;;;;;;10413068;28;20036;-61
2022/02/17 01:08:52;;;;;;;2.70;1.08;;;17.90;65.40;;;;;;10429418;28;20048;-61
2022/02/17 01:13:53;;;;;;;1.25;0.60;;;17.90;65.40;;;;;;10399254;28;20116;-61
2022/02/17 01:18:53;;;;;;;3.45;0.77;;;17.80;65.40;;;;;;10412088;28;20124;-61
2022/02/17 01:23:54;;;;;;;2.58;0.80;;;17.90;65.30;;;;;;10412090;28;20072;-61
2022/02/17 01:28:55;;;;;;;2.35;1.08;;;17.90;65.30;;;;;;10400253;28;20033;-61
2022/02/17 01:33:56;;;;;;;2.13;0.98;;;17.90;65.30;;;;;;10432593;28;20056;-61
2022/02/17 01:38:57;;;;;;;5.30;1.35;;;17.90;65.20;;;;;;10415657;28;20038;-61
2022/02/17 01:44:02;;;;;;;1.88;0.63;;;17.80;65.20;;;;;;10413872;28;20470;-60
2022/02/17 01:49:06;;;;;;;2.25;0.93;;;17.90;65.20;;;;;;10414309;28;20033;-61
2022/02/17 01:54:08;;;;;;;3.70;0.73;;;17.90;65.10;;;;;;10429429;28;20029;-60
2022/02/17 01:59:10;;;;;;;2.05;1.05;;;17.80;65.20;;;;;;10413830;28;20034;-61
2022/02/17 02:04:11;;;;;;;2.05;0.95;;;17.80;65.10;;;;;;10415659;28;20385;-61
2022/02/17 02:09:16;;;;;;;3.40;1.02;;;17.80;65.10;;;;;;10412155;28;20041;-60
2022/02/17 02:14:18;;;;;;;2.35;0.80;;;17.80;65.20;;;;;;10413631;28;20354;-61
2022/02/17 02:19:20;;;;;;;3.03;1.15;;;17.90;65.10;;;;;;10428526;28;20243;-61
2022/02/17 02:24:20;;;;;;;2.35;1.05;;;17.80;65.10;;;;;;10395652;28;20370;-61
2022/02/17 02:29:21;;;;;;;1.70;0.70;;;17.80;65.10;;;;;;10412251;28;20030;-62
2022/02/17 02:34:22;;;;;;;2.33;0.88;;;17.90;65.00;;;;;;10415358;28;20053;-61
2022/02/17 02:39:23;;;;;;;3.03;0.80;;;17.80;64.90;;;;;;10421287;28;20120;-61
2022/02/17 02:44:23;;;;;;;3.15;1.08;;;17.80;65.00;;;;;;10436612;28;20095;-62
2022/02/17 02:49:24;;;;;;;1.92;1.35;;;17.90;65.50;;;;;;10436294;28;20168;-60
2022/02/17 02:54:25;;;;;;;2.75;0.85;;;17.80;64.90;;;;;;10436357;28;20126;-60
2022/02/17 02:59:25;;;;;;;1.80;0.60;;;17.90;64.90;;;;;;10423758;28;20045;-60
2022/02/17 03:04:26;;;;;;;3.33;0.85;;;17.80;64.80;;;;;;10435609;28;20160;-61
2022/02/17 03:09:27;;;;;;;2.08;0.63;;;17.80;64.80;;;;;;10420464;28;20112;-60
2022/02/17 03:14:27;;;;;;;4.25;1.65;;;17.90;64.80;;;;;;10420138;28;20068;-60
2022/02/17 03:19:28;;;;;;;2.40;0.77;;;17.90;64.70;;;;;;10418364;28;20029;-61
2022/02/17 03:24:29;;;;;;;2.00;0.70;;;17.80;64.80;;;;;;10435214;28;20100;-61
2022/02/17 03:29:30;;;;;;;3.17;0.98;;;17.80;64.70;;;;;;10419685;28;20033;-61
2022/02/17 03:34:30;;;;;;;4.53;1.23;;;17.80;64.70;;;;;;10419364;28;20132;-61
2022/02/17 03:39:33;;;;;;;3.00;1.33;;;17.80;64.70;;;;;;10415384;28;20026;-61
2022/02/17 03:44:34;;;;;;;6.72;1.65;;;17.80;64.60;;;;;;10415199;28;20030;-61
2022/02/17 03:49:34;;;;;;;4.93;1.10;;;17.80;64.70;;;;;;10415823;28;20034;-61
2022/02/17 03:54:35;;;;;;;3.70;0.98;;;17.80;64.50;;;;;;10416319;28;20025;-61
2022/02/17 03:59:36;;;;;;;2.50;1.00;;;17.80;64.60;;;;;;10398155;28;20036;-60
2022/02/17 04:04:36;;;;;;;4.28;1.17;;;17.80;64.70;;;;;;10414731;28;20398;-62
2022/02/17 04:09:37;;;;;;;3.10;0.90;;;17.80;64.60;;;;;;10414381;28;20037;-61
2022/02/17 04:14:38;;;;;;;3.17;1.05;;;17.80;64.60;;;;;;10415071;28;20112;-60
2022/02/17 04:19:38;;;;;;;2.08;1.00;;;17.80;64.60;;;;;;10417373;28;20116;-61
2022/02/17 04:24:41;;;;;;;3.35;1.15;;;17.80;64.50;;;;;;10412874;28;20029;-60
2022/02/17 04:29:42;;;;;;;3.05;0.95;;;17.80;64.60;;;;;;10404230;28;20040;-61
2022/02/17 04:34:42;;;;;;;4.23;0.90;;;17.80;64.40;;;;;;10362410;28;1062343;-61
2022/02/17 04:39:43;;;;;;;1.60;0.70;;;17.80;64.50;;;;;;10416516;28;20379;-61
2022/02/17 04:44:48;;;;;;;2.88;0.77;;;17.80;64.60;;;;;;10415084;28;20056;-61
2022/02/17 04:49:49;;;;;;;3.53;1.50;;;17.80;64.50;;;;;;10414871;28;20063;-61
2022/02/17 04:54:50;;;;;;;5.07;1.25;;;17.80;64.50;;;;;;10431462;28;20056;-61
2022/02/17 04:59:50;;;;;;;2.45;0.98;;;17.80;64.50;;;;;;10413702;28;20401;-60
2022/02/17 05:04:52;;;;;;;2.88;1.00;;;17.80;64.40;;;;;;10397108;28;20029;-60
2022/02/17 05:09:52;;;;;;;4.75;1.15;;;17.80;64.50;;;;;;10415391;28;20063;-61
2022/02/17 05:14:53;;;;;;;3.45;0.93;;;17.80;64.40;;;;;;10400905;28;20120;-61
2022/02/17 05:19:53;;;;;;;3.20;0.95;;;17.80;64.20;;;;;;10413324;28;20034;-60
2022/02/17 05:24:54;;;;;;;4.35;1.15;;;17.80;64.30;;;;;;10413486;28;20033;-61
2022/02/17 05:29:55;;;;;;;4.50;1.10;;;17.80;64.30;;;;;;10413650;28;20100;-61
2022/02/17 05:34:56;;;;;;;2.00;0.80;;;17.80;64.30;;;;;;10416001;28;20068;-60
2022/02/17 05:39:56;;;;;;;3.45;0.73;;;17.80;64.30;;;;;;10411982;28;20036;-60
2022/02/17 05:44:57;;;;;;;2.58;1.00;;;17.80;64.30;;;;;;10412574;28;20091;-60
2022/02/17 05:49:58;;;;;;;3.40;1.02;;;17.80;64.30;;;;;;10411856;28;20037;-58
2022/02/17 05:54:58;;;;;;;2.90;0.90;;;17.80;64.50;;;;;;10414384;28;20513;-59
2022/02/17 05:59:59;;;;;;;3.92;1.25;;;18.10;63.90;;;;;;10412393;28;20096;-58
2022/02/17 06:05:00;;;;;;;7.15;1.27;;;17.90;66.10;;;;;;10411226;28;20108;-59
2022/02/17 06:10:01;;;;;;;3.97;1.15;;;17.90;67.30;;;;;;10411745;28;20128;-59
2022/02/17 06:15:01;;;;;;;3.90;1.20;;;18.00;66.40;;;;;;10428582;28;20503;-59
2022/02/17 06:20:04;;;;;;;4.97;1.13;;;18.00;66.80;;;;;;10417745;28;20052;-58
2022/02/17 06:25:06;;;;;;;4.13;1.27;;;18.00;67.20;;;;;;10395387;28;20377;-59
2022/02/17 06:30:07;;;;;;;6.85;1.30;;;17.90;67.00;;;;;;10412136;28;20109;-59
2022/02/17 06:35:08;;;;;;;6.95;1.65;;;17.80;67.10;;;;;;10416375;28;20099;-60
2022/02/17 06:40:19;;;;;;;8.07;1.60;;;17.90;67.00;;;;;;10411996;28;20044;-59
2022/02/17 06:45:20;;;;;;;6.70;1.70;;;17.70;67.40;;;;;;10407982;28;20048;-58
2022/02/17 06:50:21;;;;;;;13.48;2.22;;;17.70;67.30;;;;;;10408588;28;20030;-61
2022/02/17 06:55:22;;;;;;;10.40;2.38;;;17.80;66.90;;;;;;10419184;28;20039;-60
2022/02/17 07:00:23;;;;;;;7.65;1.77;;;17.60;66.90;;;;;;10409064;28;20033;-59
2022/02/17 07:05:26;;;;;;;10.05;2.42;;;17.50;66.80;;;;;;10409634;28;20029;-60
2022/02/17 07:15:48;;;;;;;13.33;2.47;;;17.50;66.70;;;;;;10409807;28;20615;-61
2022/02/17 07:20:50;;;;;;;10.50;2.05;;;17.50;66.70;;;;;;10414006;28;20029;-60
2022/02/17 07:25:52;;;;;;;5.95;1.85;;;17.50;66.50;;;;;;10403899;28;20029;-60
2022/02/17 07:30:53;;;;;;;11.30;1.80;;;17.50;66.50;;;;;;10385059;28;20053;-61
2022/02/17 07:35:54;;;;;;;8.10;1.85;;;17.40;66.40;;;;;;10431599;28;20060;-61
2022/02/17 07:40:54;;;;;;;6.57;1.50;;;17.40;66.60;;;;;;10415046;28;20108;-61
2022/02/17 07:45:57;;;;;;;8.13;1.38;;;17.50;66.30;;;;;;10414980;28;20100;-60
2022/02/17 07:50:57;;;;;;;11.43;2.65;;;17.50;66.20;;;;;;10433144;28;20047;-61
2022/02/17 07:55:59;;;;;;;7.22;1.50;;;17.40;66.30;;;;;;10433381;28;20062;-60
2022/02/17 08:01:01;;;;;;;7.28;2.42;;;17.40;66.30;;;;;;10415386;28;20026;-60
2022/02/17 08:06:02;;;;;;;7.80;1.95;;;17.50;65.90;;;;;;10432901;28;20057;-60
2022/02/17 08:11:03;;;;;;;6.70;1.52;;;17.60;65.70;;;;;;10432210;28;20025;-60
2022/02/17 08:16:03;;;;;;;5.07;1.58;;;17.60;65.70;;;;;;10402826;28;20022;-61
2022/02/17 08:21:04;;;;;;;4.65;2.05;;;17.60;65.70;;;;;;10415702;28;20060;-61
2022/02/17 08:26:05;;;;;;;6.65;1.30;;;17.70;65.50;;;;;;10432002;28;20018;-61
2022/02/17 08:31:06;;;;;;;8.43;1.75;;;17.70;65.40;;;;;;10414703;28;20073;-61
2022/02/17 08:36:06;;;;;;;4.95;1.38;;;17.70;65.40;;;;;;10430869;28;20108;-60
2022/02/17 08:41:09;;;;;;;3.92;1.40;;;17.80;65.30;;;;;;10416267;28;20087;-61
2022/02/17 08:46:10;;;;;;;3.63;1.20;;;17.70;65.30;;;;;;10414604;28;20206;-61
2022/02/17 08:51:11;;;;;;;3.30;1.15;;;17.70;65.40;;;;;;10414589;28;20034;-61
2022/02/17 08:56:11;;;;;;;5.45;1.67;;;17.60;65.60;;;;;;10431127;28;20029;-60
2022/02/17 09:01:13;;;;;;;7.82;1.50;;;17.60;65.80;;;;;;10414218;28;20025;-60
2022/02/17 09:06:14;;;;;;;2.20;0.70;;;17.70;65.50;;;;;;10413851;28;20026;-61
2022/02/17 09:11:15;;;;;;;3.40;1.13;;;17.70;65.50;;;;;;10415093;28;20025;-61
2022/02/17 09:16:16;;;;;;;5.35;1.52;;;17.70;65.60;;;;;;10413691;28;20033;-60
2022/02/17 09:21:17;;;;;;;1.85;0.65;;;17.60;65.60;;;;;;10403044;28;20040;-61
2022/02/17 09:26:18;;;;;;;4.82;1.13;;;17.60;65.70;;;;;;10413165;28;20044;-61
2022/02/17 09:31:22;;;;;;;4.80;1.40;;;17.60;65.90;;;;;;10429689;28;20129;-60
2022/02/17 09:36:27;;;;;;;3.45;0.95;;;17.50;65.80;;;;;;10419164;28;20057;-60
2022/02/17 09:41:28;;;;;;;2.17;0.73;;;17.50;66.00;;;;;;10412831;28;20061;-61
2022/02/17 09:46:29;;;;;;;4.63;1.50;;;17.50;66.10;;;;;;10413426;28;20100;-60
2022/02/17 09:51:33;;;;;;;2.50;1.25;;;17.40;66.10;;;;;;10412354;28;20053;-60
2022/02/17 09:56:37;;;;;;;3.70;1.10;;;17.40;66.20;;;;;;10412161;28;20497;-61
2022/02/17 10:01:38;;;;;;;2.72;0.88;;;17.40;66.80;;;;;;10411953;28;20037;-61
2022/02/17 10:06:57;;;;;;;3.83;0.90;;;17.40;66.90;;;;;;10428693;28;20060;-60
2022/02/17 10:11:58;;;;;;;4.35;0.88;;;17.50;66.90;;;;;;10411840;28;20037;-60
2022/02/17 10:17:05;;;;;;;2.25;0.90;;;17.40;66.90;;;;;;10428046;28;20030;-60
2022/02/17 10:22:30;;;;;;;2.90;0.73;;;17.40;66.90;;;;;;10427884;28;20029;-61
2022/02/17 10:27:34;;;;;;;2.45;0.80;;;17.40;67.00;;;;;;10401064;28;20351;-61
2022/02/17 10:32:36;;;;;;;4.80;0.77;;;17.40;67.10;;;;;;10414466;28;20103;-61
2022/02/17 10:37:55;;;;;;;3.17;1.23;;;17.40;67.00;;;;;;10410923;28;20490;-61
2022/02/17 10:43:11;;;;;;;3.20;0.77;;;17.50;66.90;;;;;;10411038;28;20084;-61
2022/02/17 10:48:25;;;;;;;2.95;0.77;;;17.50;66.80;;;;;;10414384;28;20180;-61
2022/02/17 10:53:25;;;;;;;3.78;1.30;;;17.50;66.70;;;;;;10412194;28;20080;-61
2022/02/17 10:58:31;;;;;;;1.95;0.63;;;17.50;66.90;;;;;;10416198;28;20128;-61
2022/02/17 11:03:33;;;;;;;2.10;0.60;;;17.50;66.70;;;;;;10418867;28;20052;-61
2022/02/17 11:08:35;;;;;;;3.22;1.00;;;17.60;66.60;;;;;;10418784;28;20087;-61
2022/02/17 11:13:36;;;;;;;3.38;1.05;;;17.60;66.70;;;;;;10418127;28;20104;-61
2022/02/17 11:18:39;;;;;;;3.35;1.02;;;17.60;66.60;;;;;;10405199;28;20033;-61
2022/02/17 11:23:41;;;;;;;3.53;0.95;;;17.60;66.70;;;;;;10421292;28;20029;-61
2022/02/17 11:28:42;;;;;;;1.58;0.60;;;17.60;66.60;;;;;;10404326;28;20021;-61
2022/02/17 11:33:58;;;;;;;2.40;0.75;;;17.70;66.60;;;;;;10437191;28;20624;-60
2022/02/17 11:39:06;;;;;;;2.08;0.65;;;17.70;66.50;;;;;;10433639;28;20116;-60
2022/02/17 11:44:31;;;;;;;1.73;0.53;;;17.70;66.50;;;;;;10417438;28;20024;-61
2022/02/17 11:49:35;;;;;;;1.60;0.52;;;17.70;66.50;;;;;;10417124;28;20299;-60
2022/02/17 11:54:36;;;;;;;2.92;1.00;;;17.60;66.70;;;;;;10418430;28;20389;-61
2022/02/17 11:59:37;;;;;;;2.72;0.90;;;17.70;66.70;;;;;;10416359;28;20041;-61
2022/02/17 12:04:38;;;;;;;3.40;0.80;;;17.70;66.70;;;;;;10432954;28;20462;-61
2022/02/17 12:09:47;;;;;;;1.90;0.82;;;17.70;66.50;;;;;;10415883;28;20114;-61
2022/02/17 12:14:56;;;;;;;3.33;1.02;;;17.70;66.70;;;;;;10416004;28;20377;-61
2022/02/17 12:20:06;;;;;;;1.20;0.60;;;17.70;66.80;;;;;;10399465;28;20029;-61
2022/02/17 12:25:25;;;;;;;1.52;0.63;;;17.50;67.00;;;;;;10416648;28;20025;-61
2022/02/17 12:30:48;;;;;;;1.85;0.60;;;17.40;67.10;;;;;;10416314;28;20025;-61
2022/02/17 12:36:00;;;;;;;1.63;0.65;;;17.30;67.30;;;;;;10418234;28;20081;-61
2022/02/17 12:41:12;;;;;;;2.05;0.60;;;17.30;67.60;;;;;;10417534;28;20132;-61
2022/02/17 12:46:16;;;;;;;3.33;0.88;;;17.30;67.60;;;;;;10414622;28;20032;-61
2022/02/17 12:51:31;;;;;;;2.20;0.85;;;17.40;67.50;;;;;;10414780;28;20034;-60
2022/02/17 12:56:35;;;;;;;1.30;0.52;;;17.30;67.30;;;;;;10414179;28;20339;-62
2022/02/17 13:01:46;;;;;;;2.08;0.85;;;17.30;67.50;;;;;;10387761;28;20064;-62
2022/02/17 13:06:47;;;;;;;1.58;0.70;;;17.30;67.70;;;;;;10429770;28;20108;-61
2022/02/17 13:11:57;;;;;;;1.27;0.93;;;17.30;67.50;;;;;;10430713;28;20365;-61
2022/02/17 13:17:12;;;;;;;3.40;0.70;;;17.30;67.60;;;;;;10413504;28;20033;-61
2022/02/17 13:22:14;;;;;;;3.25;0.90;;;17.20;67.70;;;;;;10412697;28;20056;-62
2022/02/17 13:27:21;;;;;;;1.33;0.40;;;17.20;67.60;;;;;;10399841;28;20076;-61
2022/02/17 13:32:29;;;;;;;2.45;0.88;;;17.20;67.70;;;;;;10408357;28;20052;-61
2022/02/17 13:37:48;;;;;;;1.70;0.50;;;17.20;67.60;;;;;;10372810;28;20060;-61
2022/02/17 13:42:57;;;;;;;1.95;0.52;;;17.20;67.70;;;;;;10428595;28;20029;-62
2022/02/17 13:47:58;;;;;;;2.55;0.57;;;17.10;67.70;;;;;;10412625;28;20524;-61
2022/02/17 13:53:01;;;;;;;3.88;0.73;;;17.10;67.80;;;;;;10398823;28;20386;-61
2022/02/17 13:58:04;;;;;;;2.13;0.70;;;17.10;67.90;;;;;;10412074;28;20121;-61
2022/02/17 14:03:29;;;;;;;4.70;0.88;;;17.10;67.80;;;;;;10412233;28;20021;-61
2022/02/17 14:08:30;;;;;;;1.17;0.40;;;17.00;67.80;;;;;;10407939;28;20053;-61
2022/02/17 14:13:31;;;;;;;0.88;0.50;;;17.00;67.80;;;;;;10411886;28;20413;-62
2022/02/17 14:18:32;;;;;;;1.33;0.50;;;17.00;67.80;;;;;;10412751;28;20095;-61
2022/02/17 14:23:33;;;;;;;2.53;0.93;;;17.00;67.80;;;;;;10411734;28;20422;-61
2022/02/17 14:28:34;;;;;;;1.77;0.60;;;17.00;67.70;;;;;;10414198;28;20025;-61
2022/02/17 14:33:34;;;;;;;1.50;0.52;;;17.00;67.70;;;;;;10423402;28;20052;-61
2022/02/17 14:38:35;;;;;;;2.28;0.50;;;16.90;67.70;;;;;;10436710;28;20052;-62
2022/02/17 14:43:36;;;;;;;2.80;0.50;;;17.00;67.80;;;;;;10419289;28;20112;-61
2022/02/17 14:48:37;;;;;;;1.63;0.70;;;16.90;67.70;;;;;;10420814;28;20034;-62
2022/02/17 14:53:37;;;;;;;2.78;0.68;;;17.10;67.90;;;;;;10420556;28;20035;-62
2022/02/17 14:58:38;;;;;;;2.38;0.85;;;17.10;67.10;;;;;;10418911;28;20025;-62
2022/02/17 15:03:38;;;;;;;2.47;0.73;;;17.20;66.90;;;;;;10418690;28;20037;-62
2022/02/17 15:08:39;;;;;;;3.30;0.75;;;17.20;66.80;;;;;;10419904;28;20106;-61
2022/02/17 15:13:40;;;;;;;2.13;0.32;;;17.20;66.80;;;;;;10435111;28;20461;-61
2022/02/17 15:18:42;;;;;;;1.50;0.38;;;17.30;66.50;;;;;;10418396;28;20128;-62
2022/02/17 15:23:42;;;;;;;0.90;0.40;;;17.30;66.40;;;;;;10418187;28;20057;-61
2022/02/17 15:28:43;;;;;;;1.70;0.60;;;17.30;66.40;;;;;;10420947;28;20478;-61
2022/02/17 15:33:44;;;;;;;1.17;0.43;;;17.30;66.20;;;;;;10417489;28;20532;-61
2022/02/17 15:38:44;;;;;;;0.75;0.30;;;17.40;66.00;;;;;;10401189;28;20029;-61
2022/02/17 15:43:45;;;;;;;1.20;0.50;;;17.40;65.90;;;;;;10400085;28;20469;-61
2022/02/17 15:48:46;;;;;;;3.33;0.43;;;17.50;65.80;;;;;;10418421;28;20033;-61
2022/02/17 15:53:47;;;;;;;1.40;0.40;;;17.50;65.70;;;;;;10417033;28;20407;-62
2022/02/17 15:58:48;;;;;;;0.98;0.30;;;17.50;65.70;;;;;;10417771;28;20090;-62
2022/02/17 16:03:49;;;;;;;2.35;0.47;;;17.50;65.80;;;;;;10417869;28;20506;-61
2022/02/17 16:08:50;;;;;;;0.93;0.55;;;17.40;66.00;;;;;;10432875;28;20120;-62
2022/02/17 16:13:51;;;;;;;1.02;0.50;;;17.50;65.80;;;;;;10416001;28;20170;-61
2022/02/17 16:18:51;;;;;;;0.98;0.50;;;17.50;66.30;;;;;;10417188;28;20537;-62
2022/02/17 16:23:52;;;;;;;1.77;0.30;;;17.50;65.50;;;;;;10386155;28;20021;-61
2022/02/17 16:28:53;;;;;;;1.38;0.40;;;17.50;65.30;;;;;;10407582;28;20091;-61
2022/02/17 16:33:54;;;;;;;3.35;0.98;;;17.50;64.80;;;;;;10396264;28;20099;-59
2022/02/17 16:38:54;;;;;;;4.88;0.65;;;17.50;63.90;;;;;;10414854;28;20029;-60
2022/02/17 16:43:55;;;;;;;2.90;0.60;;;17.60;63.10;;;;;;10414442;28;20030;-60
2022/02/17 16:48:56;;;;;;;1.88;0.60;;;17.80;61.80;;;;;;10414657;28;20064;-59
2022/02/17 16:53:57;;;;;;;2.28;0.70;;;17.90;61.00;;;;;;10411131;28;20025;-60
2022/02/17 16:58:58;;;;;;;1.75;0.80;;;17.80;60.50;;;;;;10428811;28;20037;-60
2022/02/17 17:03:59;;;;;;;8.30;1.60;;;17.70;60.10;;;;;;10427793;28;20022;-56
2022/02/17 17:09:01;;;;;;;7.18;2.03;;;17.70;59.60;;;;;;10431039;28;20069;-54
2022/02/17 17:14:02;;;;;;;17.13;2.33;;;17.90;60.70;;;;;;10429641;28;20031;-58
2022/02/17 17:19:03;;;;;;;9.07;1.52;;;18.20;61.10;;;;;;10418041;28;20035;-60
2022/02/17 17:24:04;;;;;;;6.63;1.20;;;18.30;61.30;;;;;;10413922;28;20079;-59
2022/02/17 17:29:05;;;;;;;8.30;2.28;;;18.30;62.70;;;;;;10402217;28;20029;-62
2022/02/17 17:34:06;;;;;;;7.28;1.63;;;18.20;62.50;;;;;;10417410;28;20117;-61
2022/02/17 17:39:07;;;;;;;10.32;1.45;;;18.20;62.30;;;;;;10414249;28;20120;-61
2022/02/17 17:44:09;;;;;;;10.45;1.65;;;18.00;62.90;;;;;;10422998;28;20052;-60
2022/02/17 17:49:09;;;;;;;9.07;1.40;;;17.80;64.20;;;;;;10415090;28;20124;-60
2022/02/17 17:54:10;;;;;;;9.68;1.52;;;17.70;64.50;;;;;;10391118;28;20546;-60
2022/02/17 17:59:11;;;;;;;7.45;1.55;;;17.70;65.00;;;;;;10410860;28;20042;-60
2022/02/17 18:04:12;;;;;;;7.20;1.50;;;17.60;66.10;;;;;;10412205;28;20426;-61
2022/02/17 18:09:12;;;;;;;11.45;2.08;;;17.60;65.10;;;;;;10390203;28;20043;-60
2022/02/17 18:14:13;;;;;;;10.48;2.30;;;17.60;64.90;;;;;;10412803;28;20109;-60
2022/02/17 18:19:14;;;;;;;13.80;2.15;;;17.60;66.00;;;;;;10413334;28;20120;-59
2022/02/17 18:24:15;;;;;;;8.10;1.88;;;17.50;65.50;;;;;;10385860;28;20022;-60
2022/02/17 18:29:16;;;;;;;6.13;1.85;;;17.50;65.60;;;;;;10398511;28;20474;-60
2022/02/17 18:34:16;;;;;;;8.63;1.90;;;17.40;65.60;;;;;;10412991;28;20136;-60
2022/02/17 18:39:20;;;;;;;9.25;2.13;;;17.40;65.60;;;;;;10413068;28;20030;-59
2022/02/17 18:45:11;;;;;;;8.35;1.90;;;17.40;65.50;;;;;;10411497;28;20038;-60
2022/02/17 18:49:43;;;;;;;8.68;1.95;;;17.40;65.20;;;;;;10416925;28;20029;-60
2022/02/17 18:54:43;;;;;;;7.82;2.15;;;17.50;64.90;;;;;;10407348;28;20171;-60
2022/02/17 18:59:44;;;;;;;10.38;1.40;;;17.50;64.70;;;;;;10395748;28;20440;-60
2022/02/17 19:04:46;;;;;;;6.22;1.40;;;17.50;64.60;;;;;;10408457;28;20596;-59
2022/02/17 19:09:47;;;;;;;9.75;1.95;;;17.60;64.20;;;;;;10416156;28;20048;-60
2022/02/17 19:14:48;;;;;;;4.45;1.50;;;17.60;64.10;;;;;;10404574;28;20120;-60
2022/02/17 19:19:51;;;;;;;6.90;1.08;;;17.70;64.00;;;;;;10409121;28;20042;-59
2022/02/17 19:24:52;;;;;;;9.07;1.65;;;17.70;64.40;;;;;;10389917;28;20022;-60
2022/02/17 19:29:53;;;;;;;7.68;1.27;;;17.70;63.90;;;;;;10417821;28;20037;-59
2022/02/17 19:34:54;;;;;;;5.15;1.08;;;17.70;64.00;;;;;;10406238;28;20041;-59
2022/02/17 19:39:54;;;;;;;4.28;1.13;;;17.70;64.20;;;;;;10427882;28;20032;-59
2022/02/17 19:44:55;;;;;;;7.40;1.48;;;17.80;63.80;;;;;;10434084;28;20029;-60
2022/02/17 19:49:57;;;;;;;7.57;1.50;;;17.80;63.90;;;;;;10415463;28;20140;-60
2022/02/17 19:54:58;;;;;;;4.65;1.10;;;17.70;64.20;;;;;;10415433;28;20025;-60
2022/02/17 20:00:01;;;;;;;8.48;1.20;;;17.80;63.90;;;;;;10398332;28;20083;-60
2022/02/17 20:05:02;;;;;;;6.40;1.23;;;17.80;64.00;;;;;;10399419;28;20030;-61
2022/02/17 20:10:04;;;;;;;9.07;1.50;;;17.70;64.30;;;;;;10410760;28;20029;-62
2022/02/17 20:15:07;;;;;;;12.95;2.45;;;17.80;64.40;;;;;;10415041;28;20080;-60
2022/02/17 20:20:10;;;;;;;5.75;1.67;;;17.80;64.40;;;;;;10411367;28;20034;-61
2022/02/17 20:25:17;;;;;;;5.95;1.48;;;17.80;64.70;;;;;;10432238;28;20155;-61
2022/02/17 20:30:18;;;;;;;4.97;0.93;;;17.70;65.00;;;;;;10414672;28;20458;-62
2022/02/17 20:35:18;;;;;;;5.80;1.20;;;17.60;65.40;;;;;;10416301;28;20049;-62
2022/02/17 20:40:21;;;;;;;7.68;1.45;;;17.60;65.60;;;;;;10393241;28;20049;-61
2022/02/17 21:01:24;;;;;;;3.72;1.33;;;17.60;65.30;;;;;;10415237;28;20501;-60
2022/02/17 21:06:28;;;;;;;6.55;1.40;;;17.50;65.40;;;;;;10402303;28;20374;-61
2022/02/17 21:11:29;;;;;;;3.10;1.02;;;17.50;65.20;;;;;;10399725;28;20021;-62
2022/02/17 21:16:33;;;;;;;4.50;1.92;;;17.60;64.90;;;;;;10413720;28;20482;-61
2022/02/17 21:21:34;;;;;;;3.53;0.95;;;17.60;65.00;;;;;;10411014;28;20044;-61
2022/02/17 21:26:40;;;;;;;3.75;1.65;;;17.60;64.70;;;;;;10401825;28;20036;-62
2022/02/17 21:31:41;;;;;;;3.97;0.85;;;17.60;64.60;;;;;;10397411;28;20047;-61
2022/02/17 21:36:42;;;;;;;2.60;1.00;;;17.70;64.50;;;;;;10420461;28;20029;-61
2022/02/17 21:41:43;;;;;;;4.13;1.30;;;17.70;64.40;;;;;;10399677;28;20040;-60
2022/02/17 21:46:45;;;;;;;2.45;0.70;;;17.70;64.40;;;;;;10413011;28;20108;-61
2022/02/17 21:51:45;;;;;;;7.03;1.13;;;17.80;64.80;;;;;;10429598;28;20041;-60
2022/02/17 21:56:46;;;;;;;2.90;1.35;;;17.80;64.10;;;;;;10412833;28;20045;-61
2022/02/17 22:01:47;;;;;;;2.42;0.73;;;17.80;64.20;;;;;;10412597;28;20041;-61
2022/02/17 22:06:47;;;;;;;2.47;0.77;;;17.70;64.30;;;;;;10395975;28;20021;-60
2022/02/17 22:11:48;;;;;;;3.50;0.95;;;17.70;64.30;;;;;;10429045;28;20041;-61
2022/02/17 22:16:49;;;;;;;5.47;1.10;;;17.70;64.10;;;;;;10396015;28;20040;-60
2022/02/17 22:21:50;;;;;;;3.30;0.80;;;17.80;64.00;;;;;;10413536;28;20072;-60
2022/02/17 22:26:50;;;;;;;3.13;0.90;;;17.80;63.90;;;;;;10428991;28;20022;-61
2022/02/17 22:31:51;;;;;;;2.35;0.75;;;17.80;64.00;;;;;;10412928;28;20068;-61
2022/02/17 22:36:52;;;;;;;2.08;0.80;;;17.70;64.10;;;;;;10431760;28;20053;-61
2022/02/17 22:41:54;;;;;;;3.47;0.85;;;17.80;63.90;;;;;;10395431;28;20135;-60
2022/02/17 22:46:56;;;;;;;2.65;1.25;;;17.80;63.90;;;;;;10411758;28;20018;-60
2022/02/17 22:51:58;;;;;;;5.55;1.08;;;17.80;64.00;;;;;;10414567;28;20083;-61
2022/02/17 22:57:00;;;;;;;2.40;0.65;;;17.80;63.90;;;;;;10420099;28;20056;-61
2022/02/17 23:02:14;;;;;;;2.67;0.80;;;17.80;63.80;;;;;;10420574;28;20056;-60
2022/02/17 23:07:16;;;;;;;3.53;0.80;;;17.70;63.80;;;;;;10429546;28;20049;-60
2022/02/17 23:12:16;;;;;;;2.10;0.82;;;17.80;63.80;;;;;;10435982;28;20029;-61
2022/02/17 23:22:36;;;;;;;4.00;0.90;;;17.80;64.20;;;;;;10419726;28;20116;-61
2022/02/17 23:27:37;;;;;;;1.98;0.82;;;17.80;63.70;;;;;;10422252;28;20112;-61
2022/02/17 23:32:38;;;;;;;0.98;0.55;;;17.80;63.70;;;;;;10418155;28;20055;-61
2022/02/17 23:37:39;;;;;;;2.72;0.60;;;17.80;63.80;;;;;;10418313;28;20048;-60
2022/02/17 23:42:40;;;;;;;1.88;0.60;;;17.70;63.70;;;;;;10396151;28;20036;-61
2022/02/17 23:47:41;;;;;;;2.92;0.70;;;17.80;63.70;;;;;;10418183;28;20395;-61
2022/02/17 23:52:42;;;;;;;2.35;0.70;;;17.80;63.50;;;;;;10415233;28;20120;-61
2022/02/17 23:57:43;;;;;;;1.65;0.55;;;17.80;63.50;;;;;;10417458;28;20061;-60
